Time;durP1;ratioP1;P1;durP2;ratioP2;P2;SDS_P1;SDS_P2;PMS_P1;PMS_P2;Temp;Humidity;BMP_temperature;BMP_pressure;BME280_temperature;BME280_humidity;BME280_pressure;Samples;Min_cycle;Max_cycle;Signal;HPM_P1;HPM_P2
2023/06/06 00:04:45;;;;;;;6.60;4.40;;;;;;;18.20;63.35;98981.47;226368;1276;22537;-71
2023/06/06 00:09:51;;;;;;;5.70;4.60;;;;;;;18.20;63.07;98977.19;226397;1275;22526;-71
2023/06/06 00:14:54;;;;;;;9.70;5.20;;;;;;;18.19;63.41;98968.70;226285;1276;25900;-71
2023/06/06 00:19:56;;;;;;;6.60;5.70;;;;;;;18.15;63.68;98968.17;226381;1274;22533;-70
2023/06/06 00:25:07;;;;;;;5.50;5.00;;;;;;;18.11;64.27;98971.14;226399;1273;22646;-71
2023/06/06 00:30:10;;;;;;;7.30;5.70;;;;;;;18.07;64.50;98966.98;226418;1276;22627;-71
2023/06/06 00:35:15;;;;;;;7.20;5.00;;;;;;;18.02;64.62;98962.48;226412;1277;25398;-70
2023/06/06 00:40:18;;;;;;;7.30;4.70;;;;;;;17.98;64.23;98947.73;226339;1278;22540;-71
2023/06/06 00:45:23;;;;;;;5.10;3.90;;;;;;;18.02;63.96;98946.60;226312;1277;22531;-70
2023/06/06 00:50:26;;;;;;;5.40;3.80;;;;;;;18.03;62.96;98944.98;226373;1274;22537;-70
2023/06/06 00:55:31;;;;;;;8.50;3.50;;;;;;;18.01;62.66;98947.69;226417;1274;22830;-71
2023/06/06 01:00:34;;;;;;;6.70;4.00;;;;;;;17.98;62.27;98942.53;226419;1273;22522;-71
2023/06/06 01:05:37;;;;;;;5.30;3.30;;;;;;;17.90;62.74;98941.83;226445;1272;22540;-71
2023/06/06 01:10:40;;;;;;;6.00;3.70;;;;;;;17.75;62.88;98932.00;226430;1266;24244;-71
2023/06/06 01:15:53;;;;;;;6.30;3.70;;;;;;;17.62;62.84;98935.35;226423;1274;22565;-71
2023/06/06 01:20:55;;;;;;;4.30;3.60;;;;;;;17.52;63.41;98939.62;226397;1276;22542;-71
2023/06/06 01:26:04;;;;;;;4.90;3.90;;;;;;;17.37;64.18;98934.32;226412;1276;22537;-72
2023/06/06 01:31:11;;;;;;;4.70;3.80;;;;;;;17.19;64.72;98945.59;226420;1274;24238;-72
2023/06/06 01:36:20;;;;;;;5.60;4.20;;;;;;;17.02;65.62;98947.13;226524;1273;22547;-72
2023/06/06 01:41:23;;;;;;;6.10;3.60;;;;;;;16.86;66.20;98945.02;226401;1277;22538;-72
2023/06/06 01:46:37;;;;;;;4.90;3.10;;;;;;;16.68;66.37;98936.74;226432;1270;22630;-72
2023/06/06 01:52:12;;;;;;;5.60;3.40;;;;;;;16.50;66.18;98938.84;226268;1277;22551;-73
2023/06/06 01:57:16;;;;;;;4.00;3.60;;;;;;;16.36;66.43;98936.17;226346;1274;22878;-73
2023/06/06 02:02:18;;;;;;;6.80;3.50;;;;;;;16.24;67.34;98935.96;226407;1277;22530;-73
2023/06/06 02:07:21;;;;;;;7.60;4.00;;;;;;;16.16;67.56;98938.92;226356;1277;24264;-72
2023/06/06 02:12:23;;;;;;;3.60;3.10;;;;;;;16.07;67.91;98943.92;226316;1278;22530;-72
2023/06/06 02:17:26;;;;;;;4.80;3.10;;;;;;;16.00;68.73;98935.59;226332;1276;22645;-72
2023/06/06 02:22:28;;;;;;;7.40;3.60;;;;;;;15.90;69.03;98928.62;226373;1277;22533;-72
2023/06/06 02:27:33;;;;;;;6.00;3.30;;;;;;;15.82;68.75;98928.69;226378;1277;22520;-71
2023/06/06 02:32:35;;;;;;;4.50;3.00;;;;;;;15.80;69.10;98926.70;226379;1273;22618;-71
2023/06/06 02:37:40;;;;;;;3.80;3.00;;;;;;;15.81;68.69;98927.05;226368;1277;22533;-71
2023/06/06 02:42:43;;;;;;;3.00;2.60;;;;;;;15.83;68.82;98925.65;226357;1277;22777;-71
2023/06/06 02:47:53;;;;;;;3.90;3.00;;;;;;;15.87;69.16;98917.35;226469;1274;22551;-71
2023/06/06 02:52:55;;;;;;;6.80;3.50;;;;;;;15.85;68.93;98915.95;226391;1276;22539;-71
2023/06/06 02:58:01;;;;;;;5.50;3.00;;;;;;;15.81;68.91;98919.20;226380;1273;22556;-71
2023/06/06 03:03:03;;;;;;;6.00;3.60;;;;;;;15.78;69.14;98922.33;226439;1274;22555;-71
2023/06/06 03:08:05;;;;;;;5.30;3.60;;;;;;;15.76;69.40;98922.23;226379;1276;22545;-72
2023/06/06 03:13:08;;;;;;;5.30;3.90;;;;;;;15.76;69.66;98927.99;226259;1273;22535;-72
2023/06/06 03:18:20;;;;;;;6.90;4.40;;;;;;;15.75;69.77;98930.25;226327;1273;22541;-72
2023/06/06 03:23:38;;;;;;;6.70;3.90;;;;;;;15.75;70.37;98927.05;226469;1276;22500;-72
2023/06/06 03:28:40;;;;;;;6.10;4.20;;;;;;;15.75;70.48;98930.96;226391;1271;22575;-72
2023/06/06 03:33:45;;;;;;;7.10;4.10;;;;;;;15.77;70.82;98933.36;226442;1273;22551;-72
2023/06/06 03:38:48;;;;;;;6.70;4.40;;;;;;;15.77;71.18;98929.22;226413;1273;22585;-72
2023/06/06 03:43:54;;;;;;;9.00;4.80;;;;;;;15.77;71.12;98932.09;226403;1277;22763;-72
2023/06/06 03:48:57;;;;;;;7.30;4.60;;;;;;;15.77;71.49;98928.73;226346;1276;22568;-71
2023/06/06 03:53:59;;;;;;;5.90;4.70;;;;;;;15.77;71.44;98928.64;226432;1273;22544;-72
2023/06/06 03:59:02;;;;;;;7.00;5.00;;;;;;;15.79;71.50;98929.86;226321;1276;23718;-72
2023/06/06 04:04:06;;;;;;;9.00;5.50;;;;;;;15.82;71.70;98941.27;226429;1276;22531;-72
2023/06/06 04:09:17;;;;;;;6.30;4.60;;;;;;;15.87;71.88;98935.30;226384;1273;22539;-71
2023/06/06 04:14:20;;;;;;;6.60;5.10;;;;;;;15.94;71.47;98930.98;226382;1274;22552;-71
2023/06/06 04:19:25;;;;;;;8.20;5.50;;;;;;;15.97;71.84;98921.39;226348;1272;23056;-71
2023/06/06 04:24:28;;;;;;;9.80;5.30;;;;;;;16.02;71.48;98919.34;226386;1254;24244;-73
2023/06/06 04:29:34;;;;;;;6.70;5.10;;;;;;;16.05;71.45;98913.30;226440;1254;22530;-72
2023/06/06 04:34:41;;;;;;;8.40;5.60;;;;;;;16.09;71.15;98915.08;226456;1270;22542;-72
2023/06/06 04:39:52;;;;;;;7.00;5.00;;;;;;;16.15;70.95;98923.93;226345;1272;22636;-73
2023/06/06 04:44:55;;;;;;;7.40;5.70;;;;;;;16.22;70.93;98920.92;226238;1277;23923;-72
2023/06/06 04:49:58;;;;;;;9.10;6.20;;;;;;;16.30;70.74;98922.23;226402;1273;22556;-72
2023/06/06 04:55:01;;;;;;;7.30;5.60;;;;;;;16.36;70.69;98918.20;226456;1273;22543;-72
2023/06/06 05:00:05;;;;;;;7.90;6.20;;;;;;;16.41;70.42;98929.56;226300;1272;22524;-72
2023/06/06 05:05:09;;;;;;;10.90;7.00;;;;;;;16.45;70.45;98924.81;226408;1273;22539;-72
2023/06/06 05:10:18;;;;;;;9.80;6.40;;;;;;;16.51;70.61;98922.47;226447;1277;22547;-71
2023/06/06 05:16:00;;;;;;;8.60;6.40;;;;;;;16.61;70.69;98919.02;226310;1277;24363;-72
2023/06/06 05:21:08;;;;;;;9.90;6.40;;;;;;;16.75;70.76;98916.63;226392;1277;22530;-72
2023/06/06 05:26:14;;;;;;;8.30;5.90;;;;;;;16.97;70.51;98914.24;226403;1272;25256;-72
2023/06/06 05:31:20;;;;;;;7.70;5.60;;;;;;;17.25;70.43;98917.29;226314;1277;22545;-73
2023/06/06 05:36:36;;;;;;;9.00;6.30;;;;;;;17.53;69.86;98911.93;226424;1277;25555;-72
2023/06/06 05:41:38;;;;;;;8.80;6.00;;;;;;;17.86;69.83;98911.95;226405;1277;22598;-72
2023/06/06 05:46:43;;;;;;;8.30;6.00;;;;;;;18.20;69.58;98918.06;226085;1267;23010;-72
2023/06/06 05:51:49;;;;;;;7.70;6.00;;;;;;;18.43;68.96;98918.30;225876;1265;22620;-72
2023/06/06 05:56:52;;;;;;;8.00;5.20;;;;;;;18.59;68.27;98925.52;225555;1258;22563;-72
2023/06/06 06:02:00;;;;;;;8.50;5.50;;;;;;;18.76;67.85;98925.45;225759;1271;23014;-73
2023/06/06 06:07:18;;;;;;;7.70;4.60;;;;;;;19.01;67.53;98928.71;225548;1264;22571;-72
2023/06/06 06:12:23;;;;;;;6.10;4.00;;;;;;;19.29;66.96;98930.44;225384;1260;137903;-72
2023/06/06 06:18:02;;;;;;;8.50;4.10;;;;;;;19.65;65.94;98930.50;225293;1260;315033;-72
2023/06/06 06:23:25;;;;;;;7.80;5.00;;;;;;;19.92;65.22;98930.12;225792;1267;137447;-72
2023/06/06 06:29:06;;;;;;;;;;;;;;;;;;;;;
2023/06/06 06:34:20;;;;;;;;;;;;;;;;;;;;;
2023/06/06 06:39:48;;;;;;;7.50;4.20;;;;;;;20.67;62.95;98922.88;225621;1271;22569;-72
2023/06/06 06:44:56;;;;;;;;;;;;;;;20.88;62.47;98919.73;225549;1263;22526;-72
2023/06/06 06:50:10;;;;;;;5.00;3.90;;;;;;;21.10;61.74;98911.83;225451;1255;123521;-72
2023/06/06 06:55:34;;;;;;;6.60;4.30;;;;;;;21.25;61.11;98913.25;225644;1277;137491;-72
2023/06/06 07:01:27;;;;;;;6.00;4.20;;;;;;;21.36;60.90;98914.58;225516;1271;137911;-73
2023/06/06 07:06:06;;;;;;;9.60;4.20;;;;;;;21.43;60.45;98915.08;225489;1255;137410;-73
2023/06/06 07:11:17;;;;;;;7.20;4.60;;;;;;;21.53;60.55;98911.14;225765;1274;137371;-70
2023/06/06 07:17:08;;;;;;;9.00;5.30;;;;;;;21.63;60.32;98911.27;225589;1260;137412;-72
2023/06/06 07:22:28;;;;;;;9.30;5.50;;;;;;;21.73;60.04;98902.53;225724;1270;137514;-72
2023/06/06 07:27:39;;;;;;;8.80;6.10;;;;;;;21.81;59.44;98903.51;225921;1255;22557;-72
2023/06/06 07:32:46;;;;;;;11.80;6.50;;;;;;;21.90;59.24;98900.73;225595;1271;136898;-73
2023/06/06 07:37:49;;;;;;;8.50;6.20;;;;;;;22.07;59.00;98909.38;225484;1259;137445;-72
2023/06/06 07:42:51;;;;;;;11.30;6.50;;;;;;;22.22;58.43;98909.25;225414;1255;137791;-73
2023/06/06 07:47:57;;;;;;;8.80;6.60;;;;;;;22.27;58.22;98905.82;225639;1272;137666;-73
2023/06/06 07:53:02;;;;;;;10.20;6.60;;;;;;;22.30;57.98;98902.19;225319;1255;137380;-74
2023/06/06 07:58:11;;;;;;;10.60;6.90;;;;;;;22.37;57.69;98905.30;225423;1260;137520;-74
2023/06/06 08:03:14;;;;;;;10.40;6.20;;;;;;;22.51;57.67;98907.63;225402;1278;23230;-74
2023/06/06 08:08:17;;;;;;;8.90;6.30;;;;;;;22.62;57.54;98906.65;225200;1265;137415;-73
2023/06/06 08:13:20;;;;;;;10.10;5.70;;;;;;;22.80;57.15;98902.10;225321;1264;137173;-76
2023/06/06 08:18:22;;;;;;;6.70;5.10;;;;;;;22.92;56.64;98900.00;225447;1278;137539;-75
2023/06/06 08:23:27;;;;;;;8.00;5.80;;;;;;;23.06;56.30;98897.12;226470;1256;137361;-74
2023/06/06 08:28:30;;;;;;;8.70;6.20;;;;;;;23.29;55.84;98892.70;227007;1274;137861;-74
2023/06/06 08:33:32;;;;;;;9.00;5.90;;;;;;;23.55;55.52;98891.44;225715;1271;22542;-75
2023/06/06 08:38:36;;;;;;;12.40;5.90;;;;;;;23.87;55.26;98891.11;225581;1274;137193;-74
2023/06/06 08:43:43;;;;;;;8.80;5.10;;;;;;;24.12;54.39;98887.84;225737;1275;137412;-73
2023/06/06 08:48:50;;;;;;;11.60;5.30;;;;;;;24.23;53.99;98885.11;225617;1277;137321;-72
2023/06/06 08:53:55;;;;;;;8.90;5.40;;;;;;;24.17;53.58;98888.58;225738;1271;150614;-74
2023/06/06 08:59:03;;;;;;;9.80;5.70;;;;;;;24.21;53.78;98888.31;225764;1276;136778;-74
2023/06/06 09:04:06;;;;;;;;;;;;;;;24.34;53.24;98885.42;225853;1274;137388;-74
2023/06/06 09:09:10;;;;;;;11.30;5.90;;;;;;;24.45;53.09;98884.52;225802;1260;22541;-75
2023/06/06 09:14:12;;;;;;;48.80;9.60;;;;;;;24.60;53.13;98884.85;225492;1263;137197;-75
2023/06/06 09:19:40;;;;;;;9.80;5.20;;;;;;;24.78;52.79;98886.44;225588;1260;137385;-75
2023/06/06 09:24:57;;;;;;;;;;;;;;;;;;;;;
2023/06/06 09:30:06;;;;;;;9.90;5.80;;;;;;;25.10;52.47;98885.59;225485;1271;137759;-73
2023/06/06 09:35:19;;;;;;;8.50;5.60;;;;;;;25.34;51.64;98886.13;225501;1269;137413;-75
2023/06/06 09:40:31;;;;;;;11.00;5.70;;;;;;;25.53;51.16;98888.53;225728;1271;137343;-74
2023/06/06 09:46:04;;;;;;;10.90;6.20;;;;;;;25.72;50.98;98883.27;225660;1255;138087;-74
2023/06/06 09:51:11;;;;;;;47.00;8.30;;;;;;;25.87;50.41;98883.12;225788;1255;22662;-73
2023/06/06 09:56:22;;;;;;;8.90;5.50;;;;;;;25.89;50.11;98881.31;225956;1264;137306;-73
2023/06/06 10:01:40;;;;;;;12.10;5.20;;;;;;;25.92;50.12;98883.67;225741;1267;137246;-73
2023/06/06 10:06:46;;;;;;;85.50;14.60;;;;;;;25.93;49.91;98880.10;225547;1274;137530;-72
2023/06/06 10:11:50;;;;;;;6.60;4.70;;;;;;;25.82;49.36;98881.02;225809;1271;137855;-75
2023/06/06 10:16:53;;;;;;;9.40;5.10;;;;;;;25.86;50.08;98873.45;225522;1261;137399;-75
2023/06/06 10:21:57;;;;;;;8.40;5.10;;;;;;;26.05;49.80;98872.29;225771;1270;137456;-72
2023/06/06 10:27:10;;;;;;;22.60;8.00;;;;;;;26.13;49.73;98868.79;225901;1262;22577;-72
2023/06/06 10:32:17;;;;;;;12.50;6.20;;;;;;;26.14;49.40;98866.32;225900;1278;137265;-74
2023/06/06 10:37:25;;;;;;;7.40;4.90;;;;;;;26.20;49.37;98863.56;225787;1261;137449;-72
2023/06/06 10:42:34;;;;;;;;;;;;;;;26.20;48.96;98866.05;225726;1271;138148;-73
2023/06/06 10:47:41;;;;;;;13.60;6.00;;;;;;;26.07;49.20;98865.27;225611;1260;124053;-77
2023/06/06 10:52:45;;;;;;;14.50;5.80;;;;;;;25.81;49.18;98869.64;225557;1271;137851;-75
2023/06/06 10:58:13;;;;;;;29.00;8.70;;;;;;;25.43;49.86;98871.61;225847;1265;22556;-77
2023/06/06 11:03:30;;;;;;;8.30;5.90;;;;;;;25.38;50.40;98871.33;225831;1255;22581;-76
2023/06/06 11:08:56;;;;;;;8.10;5.50;;;;;;;25.19;50.33;98868.16;225736;1265;137226;-77
2023/06/06 11:14:07;;;;;;;8.70;5.60;;;;;;;25.28;51.08;98866.86;225583;1270;137482;-77
2023/06/06 11:19:21;;;;;;;9.70;6.00;;;;;;;25.63;50.65;98862.48;225653;1267;137487;-78
2023/06/06 11:24:31;;;;;;;10.80;6.70;;;;;;;25.87;50.15;98858.98;225531;1267;138243;-78
2023/06/06 11:29:35;;;;;;;7.70;6.80;;;;;;;26.08;49.99;98853.14;225578;1265;137629;-76
2023/06/06 11:34:38;;;;;;;7.10;6.00;;;;;;;26.05;49.36;98852.45;225342;1256;137709;-72
2023/06/06 11:39:41;;;;;;;8.40;6.30;;;;;;;25.99;49.88;98848.30;225569;1255;22599;-74
2023/06/06 11:44:43;;;;;;;8.70;6.20;;;;;;;25.98;49.64;98847.33;225536;1276;137973;-76
2023/06/06 11:49:46;;;;;;;8.40;6.70;;;;;;;25.88;49.89;98846.66;225616;1272;137478;-75
2023/06/06 11:54:56;;;;;;;6.90;6.30;;;;;;;25.86;50.47;98851.02;225744;1274;137397;-74
2023/06/06 12:00:06;;;;;;;11.40;6.70;;;;;;;25.93;49.92;98856.91;225511;1265;137431;-75
2023/06/06 12:05:20;;;;;;;9.50;5.90;;;;;;;26.10;50.42;98861.06;225747;1265;137666;-75
2023/06/06 12:10:26;;;;;;;6.10;5.50;;;;;;;26.11;49.59;98860.03;225773;1265;137668;-76
2023/06/06 12:16:04;;;;;;;6.70;6.00;;;;;;;26.18;49.47;98863.41;225907;1274;22532;-73
2023/06/06 12:21:06;;;;;;;8.00;6.50;;;;;;;26.25;49.43;98862.70;225403;1278;22556;-77
2023/06/06 12:26:13;;;;;;;11.40;6.40;;;;;;;26.28;49.28;98868.56;225434;1266;137136;-72
2023/06/06 12:31:20;;;;;;;10.90;6.70;;;;;;;26.25;49.27;98862.95;225730;1275;137745;-75
2023/06/06 12:36:28;;;;;;;9.60;6.90;;;;;;;26.11;49.01;98858.46;225660;1260;137596;-75
2023/06/06 12:41:41;;;;;;;7.40;6.50;;;;;;;25.98;49.15;98863.80;225401;1275;137392;-75
2023/06/06 12:46:46;;;;;;;8.50;6.80;;;;;;;25.92;49.27;98864.99;225563;1277;137361;-75
2023/06/06 12:51:48;;;;;;;5.70;5.10;;;;;;;25.98;49.37;98864.83;225547;1258;22547;-75
2023/06/06 12:56:50;;;;;;;9.40;4.40;;;;;;;25.94;49.03;98861.56;225567;1271;136984;-75
2023/06/06 13:01:54;;;;;;;4.70;3.30;;;;;;;25.83;48.33;98865.67;225568;1267;137579;-76
2023/06/06 13:06:56;;;;;;;4.10;3.20;;;;;;;25.72;48.22;98869.63;225622;1262;137373;-74
2023/06/06 13:11:59;;;;;;;3.30;2.80;;;;;;;25.68;48.28;98871.51;225585;1277;137375;-74
2023/06/06 13:17:08;;;;;;;3.00;2.80;;;;;;;25.61;47.69;98866.62;225583;1272;137398;-75
2023/06/06 13:22:15;;;;;;;3.00;2.80;;;;;;;25.52;47.52;98864.63;225778;1274;137542;-76
2023/06/06 13:27:19;;;;;;;3.30;2.90;;;;;;;25.52;47.93;98865.38;225733;1256;22544;-74
2023/06/06 13:32:22;;;;;;;3.90;2.90;;;;;;;25.73;48.46;98863.02;225687;1270;137073;-75
2023/06/06 13:37:25;;;;;;;4.60;3.50;;;;;;;25.77;48.62;98861.68;225692;1271;137205;-75
2023/06/06 13:42:27;;;;;;;3.50;3.20;;;;;;;25.90;48.71;98865.39;225633;1277;137397;-74
2023/06/06 13:47:30;;;;;;;4.10;3.80;;;;;;;26.04;48.44;98854.90;225718;1272;137346;-75
2023/06/06 13:52:34;;;;;;;3.70;3.30;;;;;;;26.22;48.73;98847.29;225701;1267;137908;-76
2023/06/06 13:57:41;;;;;;;4.20;3.50;;;;;;;26.36;48.55;98839.40;225555;1274;22559;-76
2023/06/06 14:02:49;;;;;;;3.70;3.30;;;;;;;26.58;48.48;98838.59;225459;1260;137211;-74
2023/06/06 14:07:51;;;;;;;3.90;3.40;;;;;;;26.57;48.37;98833.95;225591;1275;24368;-74
2023/06/06 14:12:53;;;;;;;3.70;2.90;;;;;;;26.64;48.18;98835.52;227114;1274;24687;-74
2023/06/06 14:17:55;;;;;;;3.60;3.30;;;;;;;26.67;47.81;98830.98;225772;1275;22554;-74
2023/06/06 14:22:58;;;;;;;3.30;3.00;;;;;;;26.51;47.72;98832.92;226006;1277;25364;-74
2023/06/06 14:28:00;;;;;;;4.10;2.90;;;;;;;26.31;47.62;98830.08;226226;1276;22660;-75
2023/06/06 14:33:03;;;;;;;4.10;3.60;;;;;;;26.24;47.86;98831.23;226330;1275;22548;-74
2023/06/06 14:38:05;;;;;;;3.10;2.80;;;;;;;26.10;47.73;98832.79;226378;1275;22623;-74
2023/06/06 14:43:08;;;;;;;3.40;3.10;;;;;;;25.82;47.92;98825.56;226283;1275;22527;-78
2023/06/06 14:48:17;;;;;;;4.10;3.20;;;;;;;25.56;48.28;98822.00;226438;1276;22526;-73
2023/06/06 14:53:20;;;;;;;3.70;3.40;;;;;;;25.43;48.70;98824.76;226444;1278;22529;-74
2023/06/06 14:58:23;;;;;;;4.70;3.40;;;;;;;25.39;48.97;98820.41;226336;1275;22543;-74
2023/06/06 15:03:26;;;;;;;4.00;3.70;;;;;;;25.35;49.39;98819.96;226369;1273;22545;-74
2023/06/06 15:08:31;;;;;;;4.00;3.50;;;;;;;25.31;50.08;98820.53;226439;1275;22527;-75
2023/06/06 15:13:37;;;;;;;4.10;3.60;;;;;;;25.40;49.92;98817.05;226294;1271;22548;-74
2023/06/06 15:18:41;;;;;;;3.70;3.40;;;;;;;25.44;49.52;98810.03;226386;1277;25930;-75
2023/06/06 15:23:43;;;;;;;4.10;3.70;;;;;;;25.24;48.85;98808.14;226356;1269;22548;-75
2023/06/06 15:28:46;;;;;;;3.70;3.30;;;;;;;25.20;49.17;98805.42;226451;1272;22537;-74
2023/06/06 15:33:50;;;;;;;4.30;3.80;;;;;;;25.18;49.13;98794.03;226283;1277;22689;-75
2023/06/06 15:38:56;;;;;;;3.40;3.10;;;;;;;25.26;49.38;98787.62;226511;1277;22605;-75
2023/06/06 15:43:58;;;;;;;4.10;3.70;;;;;;;25.29;48.98;98785.65;226387;1275;22646;-75
2023/06/06 15:49:01;;;;;;;3.80;3.50;;;;;;;25.17;48.59;98784.83;226349;1276;24253;-74
2023/06/06 15:54:03;;;;;;;4.60;3.40;;;;;;;24.98;48.74;98780.70;226255;1276;22537;-75
2023/06/06 15:59:05;;;;;;;3.80;3.50;;;;;;;24.85;49.03;98781.26;226252;1273;22535;-74
2023/06/06 16:04:07;;;;;;;5.80;3.80;;;;;;;24.72;49.21;98776.20;226366;1276;22534;-74
2023/06/06 16:09:12;;;;;;;4.70;4.00;;;;;;;24.59;48.99;98768.02;226397;1259;22523;-74
2023/06/06 16:14:15;;;;;;;4.00;3.60;;;;;;;24.46;49.26;98773.93;226426;1271;22534;-73
2023/06/06 16:19:27;;;;;;;4.20;3.80;;;;;;;24.31;49.17;98775.67;226375;1275;23303;-74
2023/06/06 16:24:33;;;;;;;4.40;4.00;;;;;;;24.19;49.35;98779.86;226367;1254;24305;-75
2023/06/06 16:29:35;;;;;;;4.00;3.60;;;;;;;24.06;49.24;98780.23;226277;1277;22564;-74
2023/06/06 16:34:37;;;;;;;4.30;3.70;;;;;;;23.94;49.31;98777.15;226409;1276;22536;-75
2023/06/06 16:39:40;;;;;;;5.50;3.90;;;;;;;23.94;49.65;98774.98;226281;1277;22579;-74
2023/06/06 16:44:41;;;;;;;4.80;3.90;;;;;;;23.90;49.48;98777.16;226422;1276;22533;-73
2023/06/06 16:49:45;;;;;;;4.30;3.90;;;;;;;23.82;49.53;98774.48;226409;1276;22533;-74
2023/06/06 16:54:48;;;;;;;5.20;4.20;;;;;;;23.73;49.55;98771.49;226311;1277;22593;-75
2023/06/06 16:59:51;;;;;;;9.90;4.40;;;;;;;23.67;49.70;98770.84;226414;1276;22686;-73
2023/06/06 17:04:56;;;;;;;6.50;4.40;;;;;;;23.59;49.58;98774.80;226324;1275;22540;-75
2023/06/06 17:09:58;;;;;;;5.40;4.60;;;;;;;23.80;50.04;98774.97;226410;1276;22530;-75
2023/06/06 17:15:01;;;;;;;4.90;4.50;;;;;;;25.10;49.81;98780.23;226386;1276;22643;-73
2023/06/06 17:20:03;;;;;;;6.40;4.60;;;;;;;26.62;48.72;98775.39;226238;1277;26903;-74
2023/06/06 17:25:05;;;;;;;5.40;4.90;;;;;;;27.78;46.40;98778.38;226404;1277;22539;-75
2023/06/06 17:30:10;;;;;;;7.50;5.30;;;;;;;27.72;44.92;98779.73;226404;1273;26082;-74
2023/06/06 17:35:13;;;;;;;8.00;4.80;;;;;;;26.96;45.60;98789.89;226379;1276;22530;-73
2023/06/06 17:40:25;;;;;;;;;;;;;;;;;;;;;
2023/06/06 17:45:48;;;;;;;7.00;5.80;;;;;;;25.15;47.44;98787.27;226364;1277;22548;-75
2023/06/06 17:51:05;;;;;;;5.50;5.00;;;;;;;24.33;48.59;98791.48;226338;1277;22533;-74
2023/06/06 17:56:12;;;;;;;7.00;5.70;;;;;;;23.68;49.46;98791.61;226384;1277;22522;-73
2023/06/06 18:01:17;;;;;;;8.70;5.70;;;;;;;23.12;50.42;98789.95;226188;1277;22898;-73
2023/06/06 18:06:28;;;;;;;9.00;5.30;;;;;;;22.62;51.56;98794.83;226353;1275;22749;-74
2023/06/06 18:11:31;;;;;;;6.80;5.20;;;;;;;22.27;52.57;98801.48;226292;1276;22528;-73
2023/06/06 18:16:33;;;;;;;7.80;5.10;;;;;;;22.05;53.27;98802.13;226306;1276;183481;-73
2023/06/06 18:21:44;;;;;;;7.70;4.60;;;;;;;21.74;53.81;98802.48;226406;1276;22584;-73
2023/06/06 18:26:46;;;;;;;10.00;5.10;;;;;;;21.50;54.68;98805.28;226343;1278;22671;-72
2023/06/06 18:31:48;;;;;;;7.70;5.50;;;;;;;21.30;55.15;98809.21;226432;1277;25236;-73
2023/06/06 18:36:50;;;;;;;6.10;4.80;;;;;;;21.11;55.71;98810.15;226400;1278;22544;-72
2023/06/06 18:41:55;;;;;;;7.80;5.20;;;;;;;20.94;56.26;98817.52;226217;1277;22745;-74
2023/06/06 18:47:03;;;;;;;9.10;5.20;;;;;;;20.78;56.72;98823.11;226453;1276;23227;-72
2023/06/06 18:52:06;;;;;;;6.40;4.70;;;;;;;20.65;57.13;98825.11;226389;1277;22560;-74
2023/06/06 18:57:09;;;;;;;5.60;4.70;;;;;;;20.50;57.33;98828.44;226498;1276;22534;-73
2023/06/06 19:02:11;;;;;;;7.00;5.00;;;;;;;20.38;57.61;98835.69;226441;1276;25275;-74
2023/06/06 19:07:13;;;;;;;5.60;4.30;;;;;;;20.29;58.09;98836.00;226494;1278;24438;-75
2023/06/06 19:12:15;;;;;;;6.60;5.20;;;;;;;20.22;58.30;98834.54;226480;1254;22541;-74
2023/06/06 19:17:17;;;;;;;5.30;4.80;;;;;;;20.15;58.45;98840.90;226447;1277;22534;-75
2023/06/06 19:22:19;;;;;;;7.70;4.90;;;;;;;20.06;58.57;98836.75;226336;1278;22548;-74
2023/06/06 19:27:21;;;;;;;7.50;4.90;;;;;;;19.98;58.63;98832.20;226321;1276;22533;-74
2023/06/06 19:32:24;;;;;;;6.20;5.00;;;;;;;19.91;58.80;98838.10;226429;1274;22548;-73
2023/06/06 19:37:26;;;;;;;7.60;4.90;;;;;;;19.82;58.93;98836.96;226438;1276;22531;-74
2023/06/06 19:42:28;;;;;;;7.70;5.00;;;;;;;19.71;59.07;98840.66;226360;1273;24921;-75
2023/06/06 19:47:31;;;;;;;7.90;5.10;;;;;;;19.61;59.36;98845.65;226271;1273;22560;-72
2023/06/06 19:52:33;;;;;;;6.90;5.10;;;;;;;19.52;59.71;98844.22;226387;1276;22544;-75
2023/06/06 19:57:35;;;;;;;9.10;5.30;;;;;;;19.41;60.15;98843.27;226286;1277;22584;-74
2023/06/06 20:02:37;;;;;;;7.80;5.70;;;;;;;19.32;60.36;98839.80;226329;1277;25230;-74
2023/06/06 20:07:40;;;;;;;9.80;5.20;;;;;;;19.23;60.62;98838.38;226438;1273;22543;-74
2023/06/06 20:12:43;;;;;;;8.00;5.30;;;;;;;19.15;60.83;98841.39;226345;1274;24244;-73
2023/06/06 20:17:45;;;;;;;6.30;5.20;;;;;;;19.05;61.00;98841.64;226448;1277;22544;-74
2023/06/06 20:22:47;;;;;;;8.00;5.10;;;;;;;18.96;61.37;98838.81;226425;1277;22586;-73
2023/06/06 20:27:51;;;;;;;6.20;5.10;;;;;;;18.88;61.58;98840.05;226204;1273;22640;-74
2023/06/06 20:32:53;;;;;;;7.20;5.30;;;;;;;18.81;61.75;98840.89;226391;1274;22929;-74
2023/06/06 20:37:56;;;;;;;7.40;5.80;;;;;;;18.74;61.95;98840.36;226418;1270;22482;-75
2023/06/06 20:42:58;;;;;;;8.30;5.70;;;;;;;18.66;62.15;98836.92;226393;1276;22549;-74
2023/06/06 20:48:08;;;;;;;;;;;;;;;18.60;62.57;98829.83;226431;1277;22524;-74
2023/06/06 20:53:11;;;;;;;6.70;5.60;;;;;;;18.56;62.74;98828.49;226360;1277;22533;-74
2023/06/06 20:58:18;;;;;;;9.40;6.00;;;;;;;18.53;62.75;98835.48;226409;1276;24236;-73
2023/06/06 21:03:29;;;;;;;7.60;5.70;;;;;;;18.51;62.98;98835.02;226495;1277;22627;-74
2023/06/06 21:08:32;;;;;;;9.40;6.00;;;;;;;18.47;63.24;98826.25;226488;1277;22534;-73
2023/06/06 21:13:51;;;;;;;7.90;6.30;;;;;;;18.43;63.46;98830.16;226439;1273;24378;-73
2023/06/06 21:18:56;;;;;;;9.50;6.70;;;;;;;18.36;63.57;98828.17;226401;1270;22554;-74
2023/06/06 21:24:02;;;;;;;9.40;5.70;;;;;;;18.31;63.92;98828.42;226379;1277;22537;-73
2023/06/06 21:29:04;;;;;;;9.00;6.00;;;;;;;18.26;64.23;98830.30;226342;1276;22534;-73
2023/06/06 21:34:10;;;;;;;8.40;5.90;;;;;;;18.19;64.49;98834.60;226384;1277;25350;-73
2023/06/06 21:39:45;;;;;;;9.70;6.70;;;;;;;18.11;64.72;98834.00;226381;1277;24845;-74
2023/06/06 21:44:56;;;;;;;10.80;6.40;;;;;;;18.06;64.96;98837.52;226267;1277;22565;-73
2023/06/06 21:50:10;;;;;;;8.60;6.60;;;;;;;18.00;65.28;98837.29;226446;1277;24269;-73
2023/06/06 21:55:14;;;;;;;7.60;6.20;;;;;;;17.95;65.64;98833.35;226455;1276;22545;-73
2023/06/06 22:00:22;;;;;;;9.00;7.20;;;;;;;17.91;65.92;98830.11;226416;1276;22540;-73
2023/06/06 22:05:41;;;;;;;8.10;7.30;;;;;;;17.86;65.98;98831.21;226469;1273;22543;-73
2023/06/06 22:10:46;;;;;;;9.90;7.10;;;;;;;17.84;66.33;98826.83;226404;1266;22744;-73
2023/06/06 22:15:48;;;;;;;10.80;7.80;;;;;;;17.82;66.50;98823.63;226369;1276;22545;-73
2023/06/06 22:20:50;;;;;;;8.30;6.70;;;;;;;17.81;66.73;98824.90;226338;1272;22923;-74
2023/06/06 22:25:52;;;;;;;7.90;6.90;;;;;;;17.80;66.88;98819.48;226320;1272;22541;-73
2023/06/06 22:31:12;;;;;;;10.10;8.00;;;;;;;17.79;66.94;98817.83;226345;1274;22553;-73
2023/06/06 22:36:15;;;;;;;10.20;8.10;;;;;;;17.78;67.19;98815.50;226280;1277;22550;-74
2023/06/06 22:41:17;;;;;;;10.80;7.70;;;;;;;17.78;67.27;98813.20;226354;1275;22542;-74
2023/06/06 22:46:19;;;;;;;11.70;8.30;;;;;;;17.79;67.54;98808.17;226281;1277;22567;-73
2023/06/06 22:51:22;;;;;;;11.10;8.40;;;;;;;17.79;67.77;98805.09;226413;1276;22540;-73
2023/06/06 22:56:27;;;;;;;10.60;8.40;;;;;;;17.80;67.87;98802.01;226364;1275;22545;-72
2023/06/06 23:01:30;;;;;;;9.90;7.70;;;;;;;17.81;68.04;98801.86;226290;1276;22544;-73
2023/06/06 23:06:33;;;;;;;10.30;8.20;;;;;;;17.80;68.11;98799.01;226283;1276;22534;-73
2023/06/06 23:11:35;;;;;;;11.00;8.60;;;;;;;17.78;68.19;98800.63;226383;1273;22584;-73
2023/06/06 23:16:40;;;;;;;14.70;9.10;;;;;;;17.72;68.54;98795.58;226506;1276;22549;-73
2023/06/06 23:21:45;;;;;;;14.90;9.30;;;;;;;17.67;68.70;98794.23;226342;1276;22559;-73
2023/06/06 23:26:50;;;;;;;12.10;8.60;;;;;;;17.62;69.16;98799.13;226377;1274;22544;-72
2023/06/06 23:31:54;;;;;;;12.30;8.80;;;;;;;17.55;69.36;98793.34;226250;1277;22641;-73
2023/06/06 23:36:56;;;;;;;10.70;9.60;;;;;;;17.50;69.72;98793.54;226395;1275;22654;-73
2023/06/06 23:42:02;;;;;;;18.80;11.00;;;;;;;17.44;70.12;98791.12;226464;1257;24268;-72
2023/06/06 23:47:05;;;;;;;12.10;10.10;;;;;;;17.40;70.43;98789.13;226264;1276;22542;-72
2023/06/06 23:52:26;;;;;;;18.60;11.10;;;;;;;17.35;70.68;98792.72;226356;1273;22576;-73